sensor_id;sensor_type;location;lat;lon;timestamp;P1;durP1;ratioP1;P2;durP2;ratioP2
14766;SDS011;7475;53.558;9.970;2023-01-31T00:02:03;12.63;;;2.10;;
14766;SDS011;7475;53.558;9.970;2023-01-31T00:04:28;14.63;;;2.87;;
14766;SDS011;7475;53.558;9.970;2023-01-31T00:06:54;19.37;;;2.63;;
14766;SDS011;7475;53.558;9.970;2023-01-31T00:09:19;14.93;;;3.03;;
14766;SDS011;7475;53.558;9.970;2023-01-31T00:11:44;15.63;;;3.30;;
14766;SDS011;7475;53.558;9.970;2023-01-31T00:14:09;12.73;;;2.20;;
14766;SDS011;7475;53.558;9.970;2023-01-31T00:16:38;14.73;;;2.10;;
14766;SDS011;7475;53.558;9.970;2023-01-31T00:19:03;10.93;;;2.30;;
14766;SDS011;7475;53.558;9.970;2023-01-31T00:21:29;16.53;;;2.27;;
14766;SDS011;7475;53.558;9.970;2023-01-31T00:23:55;10.70;;;1.93;;
14766;SDS011;7475;53.558;9.970;2023-01-31T00:26:22;12.90;;;2.73;;
14766;SDS011;7475;53.558;9.970;2023-01-31T00:28:47;17.33;;;2.20;;
14766;SDS011;7475;53.558;9.970;2023-01-31T00:31:13;15.87;;;2.83;;
14766;SDS011;7475;53.558;9.970;2023-01-31T00:33:39;10.77;;;2.60;;
14766;SDS011;7475;53.558;9.970;2023-01-31T00:36:05;11.63;;;2.20;;
14766;SDS011;7475;53.558;9.970;2023-01-31T00:38:30;12.77;;;2.03;;
14766;SDS011;7475;53.558;9.970;2023-01-31T00:40:56;9.17;;;2.20;;
14766;SDS011;7475;53.558;9.970;2023-01-31T00:43:21;10.70;;;2.73;;
14766;SDS011;7475;53.558;9.970;2023-01-31T00:45:46;13.40;;;2.40;;
14766;SDS011;7475;53.558;9.970;2023-01-31T00:48:11;20.20;;;2.93;;
14766;SDS011;7475;53.558;9.970;2023-01-31T00:50:36;15.50;;;2.80;;
14766;SDS011;7475;53.558;9.970;2023-01-31T00:53:02;18.00;;;2.83;;
14766;SDS011;7475;53.558;9.970;2023-01-31T00:55:27;18.77;;;2.80;;
14766;SDS011;7475;53.558;9.970;2023-01-31T00:57:52;21.43;;;3.53;;
14766;SDS011;7475;53.558;9.970;2023-01-31T01:00:18;21.47;;;3.27;;
14766;SDS011;7475;53.558;9.970;2023-01-31T01:02:43;19.80;;;3.57;;
14766;SDS011;7475;53.558;9.970;2023-01-31T01:05:08;26.27;;;3.17;;
14766;SDS011;7475;53.558;9.970;2023-01-31T01:07:34;12.70;;;2.50;;
14766;SDS011;7475;53.558;9.970;2023-01-31T01:09:59;11.60;;;2.23;;
14766;SDS011;7475;53.558;9.970;2023-01-31T01:12:24;12.77;;;2.27;;
14766;SDS011;7475;53.558;9.970;2023-01-31T01:14:49;16.07;;;2.80;;
14766;SDS011;7475;53.558;9.970;2023-01-31T01:17:14;16.77;;;2.57;;
14766;SDS011;7475;53.558;9.970;2023-01-31T01:19:39;14.83;;;2.37;;
14766;SDS011;7475;53.558;9.970;2023-01-31T01:22:05;15.37;;;3.10;;
14766;SDS011;7475;53.558;9.970;2023-01-31T01:24:30;18.03;;;2.67;;
14766;SDS011;7475;53.558;9.970;2023-01-31T01:26:55;15.60;;;2.30;;
14766;SDS011;7475;53.558;9.970;2023-01-31T01:29:21;13.90;;;2.53;;
14766;SDS011;7475;53.558;9.970;2023-01-31T01:31:46;15.83;;;2.60;;
14766;SDS011;7475;53.558;9.970;2023-01-31T01:34:12;11.97;;;2.47;;
14766;SDS011;7475;53.558;9.970;2023-01-31T01:36:38;17.97;;;2.80;;
14766;SDS011;7475;53.558;9.970;2023-01-31T01:39:04;19.67;;;2.97;;
14766;SDS011;7475;53.558;9.970;2023-01-31T01:41:30;20.53;;;2.80;;
14766;SDS011;7475;53.558;9.970;2023-01-31T01:43:57;17.57;;;2.47;;
14766;SDS011;7475;53.558;9.970;2023-01-31T01:48:53;22.97;;;2.93;;
14766;SDS011;7475;53.558;9.970;2023-01-31T01:51:19;15.43;;;2.70;;
14766;SDS011;7475;53.558;9.970;2023-01-31T01:53:46;12.83;;;2.57;;
14766;SDS011;7475;53.558;9.970;2023-01-31T01:56:17;10.87;;;3.03;;
14766;SDS011;7475;53.558;9.970;2023-01-31T02:01:08;22.20;;;2.77;;
14766;SDS011;7475;53.558;9.970;2023-01-31T02:03:34;15.10;;;2.47;;
14766;SDS011;7475;53.558;9.970;2023-01-31T02:06:02;15.80;;;2.70;;
14766;SDS011;7475;53.558;9.970;2023-01-31T02:08:29;12.03;;;2.23;;
14766;SDS011;7475;53.558;9.970;2023-01-31T02:13:21;16.40;;;2.90;;
14766;SDS011;7475;53.558;9.970;2023-01-31T02:15:46;15.97;;;2.67;;
14766;SDS011;7475;53.558;9.970;2023-01-31T02:18:11;15.73;;;2.40;;
14766;SDS011;7475;53.558;9.970;2023-01-31T02:33:55;17.37;;;2.50;;
14766;SDS011;7475;53.558;9.970;2023-01-31T02:39:14;18.10;;;2.93;;
14766;SDS011;7475;53.558;9.970;2023-01-31T02:47:05;20.33;;;2.33;;
14766;SDS011;7475;53.558;9.970;2023-01-31T02:49:41;15.50;;;2.83;;
14766;SDS011;7475;53.558;9.970;2023-01-31T02:52:19;13.30;;;2.50;;
14766;SDS011;7475;53.558;9.970;2023-01-31T02:54:53;15.30;;;2.40;;
14766;SDS011;7475;53.558;9.970;2023-01-31T02:57:38;13.30;;;2.07;;
14766;SDS011;7475;53.558;9.970;2023-01-31T03:00:05;10.03;;;2.23;;
14766;SDS011;7475;53.558;9.970;2023-01-31T03:02:30;14.67;;;2.57;;
14766;SDS011;7475;53.558;9.970;2023-01-31T03:04:56;11.33;;;2.00;;
14766;SDS011;7475;53.558;9.970;2023-01-31T03:07:22;11.63;;;2.23;;
14766;SDS011;7475;53.558;9.970;2023-01-31T03:15:05;10.13;;;2.13;;
14766;SDS011;7475;53.558;9.970;2023-01-31T03:17:42;6.43;;;1.60;;
14766;SDS011;7475;53.558;9.970;2023-01-31T03:20:17;13.03;;;2.00;;
14766;SDS011;7475;53.558;9.970;2023-01-31T03:22:45;10.63;;;2.30;;
14766;SDS011;7475;53.558;9.970;2023-01-31T03:25:12;10.60;;;2.33;;
14766;SDS011;7475;53.558;9.970;2023-01-31T03:27:40;11.00;;;2.40;;
14766;SDS011;7475;53.558;9.970;2023-01-31T03:30:09;12.53;;;2.97;;
14766;SDS011;7475;53.558;9.970;2023-01-31T03:32:37;13.07;;;2.30;;
14766;SDS011;7475;53.558;9.970;2023-01-31T03:35:04;12.63;;;2.77;;
14766;SDS011;7475;53.558;9.970;2023-01-31T03:37:40;23.37;;;2.77;;
14766;SDS011;7475;53.558;9.970;2023-01-31T03:40:20;15.20;;;2.27;;
14766;SDS011;7475;53.558;9.970;2023-01-31T03:48:08;11.03;;;1.57;;
14766;SDS011;7475;53.558;9.970;2023-01-31T03:50:40;16.80;;;2.90;;
14766;SDS011;7475;53.558;9.970;2023-01-31T03:55:51;13.53;;;2.50;;
14766;SDS011;7475;53.558;9.970;2023-01-31T03:58:20;16.23;;;2.73;;
14766;SDS011;7475;53.558;9.970;2023-01-31T04:00:46;13.40;;;2.30;;
14766;SDS011;7475;53.558;9.970;2023-01-31T04:03:14;17.40;;;2.80;;
14766;SDS011;7475;53.558;9.970;2023-01-31T04:05:40;15.80;;;2.87;;
14766;SDS011;7475;53.558;9.970;2023-01-31T04:08:05;17.97;;;3.20;;
14766;SDS011;7475;53.558;9.970;2023-01-31T04:10:31;15.40;;;2.83;;
14766;SDS011;7475;53.558;9.970;2023-01-31T04:12:56;20.37;;;2.83;;
14766;SDS011;7475;53.558;9.970;2023-01-31T04:15:21;17.17;;;3.70;;
14766;SDS011;7475;53.558;9.970;2023-01-31T04:17:46;16.53;;;2.77;;
14766;SDS011;7475;53.558;9.970;2023-01-31T04:20:12;25.50;;;3.87;;
14766;SDS011;7475;53.558;9.970;2023-01-31T04:22:37;21.43;;;2.70;;
14766;SDS011;7475;53.558;9.970;2023-01-31T04:25:02;23.97;;;3.30;;
14766;SDS011;7475;53.558;9.970;2023-01-31T04:27:28;18.27;;;2.80;;
14766;SDS011;7475;53.558;9.970;2023-01-31T04:29:53;17.13;;;2.47;;
14766;SDS011;7475;53.558;9.970;2023-01-31T04:32:18;19.03;;;3.23;;
14766;SDS011;7475;53.558;9.970;2023-01-31T04:34:43;26.50;;;3.13;;
14766;SDS011;7475;53.558;9.970;2023-01-31T04:37:08;17.60;;;2.80;;
14766;SDS011;7475;53.558;9.970;2023-01-31T04:39:33;24.43;;;3.37;;
14766;SDS011;7475;53.558;9.970;2023-01-31T04:41:59;15.17;;;2.77;;
14766;SDS011;7475;53.558;9.970;2023-01-31T04:44:24;16.53;;;2.87;;
14766;SDS011;7475;53.558;9.970;2023-01-31T04:46:49;23.47;;;3.07;;
14766;SDS011;7475;53.558;9.970;2023-01-31T04:49:14;22.67;;;2.73;;
14766;SDS011;7475;53.558;9.970;2023-01-31T04:51:40;18.73;;;2.73;;
14766;SDS011;7475;53.558;9.970;2023-01-31T04:54:05;19.97;;;3.27;;
14766;SDS011;7475;53.558;9.970;2023-01-31T04:56:30;21.40;;;3.27;;
14766;SDS011;7475;53.558;9.970;2023-01-31T04:58:56;13.63;;;2.67;;
14766;SDS011;7475;53.558;9.970;2023-01-31T05:01:21;13.70;;;2.67;;
14766;SDS011;7475;53.558;9.970;2023-01-31T05:03:46;16.73;;;2.33;;
14766;SDS011;7475;53.558;9.970;2023-01-31T05:06:11;15.83;;;2.83;;
14766;SDS011;7475;53.558;9.970;2023-01-31T05:08:37;15.77;;;2.60;;
14766;SDS011;7475;53.558;9.970;2023-01-31T05:11:04;19.10;;;2.63;;
14766;SDS011;7475;53.558;9.970;2023-01-31T05:13:32;18.97;;;3.30;;
14766;SDS011;7475;53.558;9.970;2023-01-31T05:16:01;15.90;;;2.43;;
14766;SDS011;7475;53.558;9.970;2023-01-31T05:18:27;16.53;;;3.23;;
14766;SDS011;7475;53.558;9.970;2023-01-31T05:20:52;13.70;;;3.13;;
14766;SDS011;7475;53.558;9.970;2023-01-31T05:23:17;18.33;;;2.80;;
14766;SDS011;7475;53.558;9.970;2023-01-31T05:25:43;17.23;;;2.77;;
14766;SDS011;7475;53.558;9.970;2023-01-31T05:28:09;17.10;;;3.00;;
14766;SDS011;7475;53.558;9.970;2023-01-31T05:30:34;24.00;;;3.00;;
14766;SDS011;7475;53.558;9.970;2023-01-31T05:33:00;23.37;;;3.10;;
14766;SDS011;7475;53.558;9.970;2023-01-31T05:35:25;22.67;;;3.10;;
14766;SDS011;7475;53.558;9.970;2023-01-31T05:37:52;20.27;;;2.53;;
14766;SDS011;7475;53.558;9.970;2023-01-31T05:40:17;22.77;;;2.63;;
14766;SDS011;7475;53.558;9.970;2023-01-31T05:42:42;17.27;;;2.93;;
14766;SDS011;7475;53.558;9.970;2023-01-31T05:45:08;26.80;;;3.00;;
14766;SDS011;7475;53.558;9.970;2023-01-31T05:47:33;20.37;;;2.83;;
14766;SDS011;7475;53.558;9.970;2023-01-31T05:49:59;23.63;;;3.70;;
14766;SDS011;7475;53.558;9.970;2023-01-31T05:52:24;20.53;;;3.13;;
14766;SDS011;7475;53.558;9.970;2023-01-31T05:54:49;18.10;;;3.50;;
14766;SDS011;7475;53.558;9.970;2023-01-31T05:57:15;16.80;;;4.03;;
14766;SDS011;7475;53.558;9.970;2023-01-31T05:59:40;21.67;;;3.37;;
14766;SDS011;7475;53.558;9.970;2023-01-31T06:02:05;21.60;;;2.80;;
14766;SDS011;7475;53.558;9.970;2023-01-31T06:04:30;21.00;;;3.10;;
14766;SDS011;7475;53.558;9.970;2023-01-31T06:06:56;26.83;;;3.60;;
14766;SDS011;7475;53.558;9.970;2023-01-31T06:09:21;17.83;;;3.10;;
14766;SDS011;7475;53.558;9.970;2023-01-31T06:11:46;27.50;;;3.03;;
14766;SDS011;7475;53.558;9.970;2023-01-31T06:14:11;21.40;;;2.80;;
14766;SDS011;7475;53.558;9.970;2023-01-31T06:16:36;28.97;;;4.10;;
14766;SDS011;7475;53.558;9.970;2023-01-31T06:19:02;19.50;;;3.50;;
14766;SDS011;7475;53.558;9.970;2023-01-31T06:21:27;19.70;;;3.33;;
14766;SDS011;7475;53.558;9.970;2023-01-31T06:23:52;22.73;;;3.60;;
14766;SDS011;7475;53.558;9.970;2023-01-31T06:26:17;24.17;;;3.50;;
14766;SDS011;7475;53.558;9.970;2023-01-31T06:28:42;17.27;;;3.73;;
14766;SDS011;7475;53.558;9.970;2023-01-31T06:31:08;15.20;;;3.13;;
14766;SDS011;7475;53.558;9.970;2023-01-31T06:33:33;20.53;;;3.27;;
14766;SDS011;7475;53.558;9.970;2023-01-31T06:35:58;16.63;;;2.67;;
14766;SDS011;7475;53.558;9.970;2023-01-31T06:38:24;20.60;;;3.40;;
14766;SDS011;7475;53.558;9.970;2023-01-31T06:40:49;17.67;;;2.93;;
14766;SDS011;7475;53.558;9.970;2023-01-31T06:43:14;21.10;;;2.93;;
14766;SDS011;7475;53.558;9.970;2023-01-31T06:45:41;13.77;;;3.00;;
14766;SDS011;7475;53.558;9.970;2023-01-31T06:48:06;17.87;;;3.07;;
14766;SDS011;7475;53.558;9.970;2023-01-31T06:50:31;20.10;;;3.53;;
14766;SDS011;7475;53.558;9.970;2023-01-31T06:52:57;16.37;;;2.90;;
14766;SDS011;7475;53.558;9.970;2023-01-31T06:55:23;19.10;;;4.07;;
14766;SDS011;7475;53.558;9.970;2023-01-31T06:57:48;20.97;;;3.00;;
14766;SDS011;7475;53.558;9.970;2023-01-31T07:00:14;14.30;;;1.87;;
14766;SDS011;7475;53.558;9.970;2023-01-31T07:02:39;21.87;;;3.50;;
14766;SDS011;7475;53.558;9.970;2023-01-31T07:05:04;22.63;;;3.50;;
14766;SDS011;7475;53.558;9.970;2023-01-31T07:07:29;14.60;;;2.67;;
14766;SDS011;7475;53.558;9.970;2023-01-31T07:09:55;26.17;;;3.30;;
14766;SDS011;7475;53.558;9.970;2023-01-31T07:12:20;14.03;;;2.57;;
14766;SDS011;7475;53.558;9.970;2023-01-31T07:14:46;11.53;;;2.50;;
14766;SDS011;7475;53.558;9.970;2023-01-31T07:17:11;15.87;;;3.13;;
14766;SDS011;7475;53.558;9.970;2023-01-31T07:19:36;15.20;;;3.20;;
14766;SDS011;7475;53.558;9.970;2023-01-31T07:22:01;21.37;;;3.43;;
14766;SDS011;7475;53.558;9.970;2023-01-31T07:24:26;11.80;;;2.67;;
14766;SDS011;7475;53.558;9.970;2023-01-31T07:26:52;14.57;;;3.03;;
14766;SDS011;7475;53.558;9.970;2023-01-31T07:29:17;14.53;;;3.10;;
14766;SDS011;7475;53.558;9.970;2023-01-31T07:31:43;17.90;;;3.03;;
14766;SDS011;7475;53.558;9.970;2023-01-31T07:34:08;16.77;;;3.13;;
14766;SDS011;7475;53.558;9.970;2023-01-31T07:36:33;18.97;;;3.40;;
14766;SDS011;7475;53.558;9.970;2023-01-31T07:38:58;17.27;;;3.50;;
14766;SDS011;7475;53.558;9.970;2023-01-31T07:41:25;18.73;;;3.80;;
14766;SDS011;7475;53.558;9.970;2023-01-31T07:43:50;15.00;;;3.43;;
14766;SDS011;7475;53.558;9.970;2023-01-31T07:46:16;20.07;;;3.33;;
14766;SDS011;7475;53.558;9.970;2023-01-31T07:48:41;18.13;;;4.00;;
14766;SDS011;7475;53.558;9.970;2023-01-31T07:51:06;17.00;;;4.50;;
14766;SDS011;7475;53.558;9.970;2023-01-31T07:53:33;21.50;;;4.40;;
14766;SDS011;7475;53.558;9.970;2023-01-31T07:56:08;16.80;;;4.30;;
14766;SDS011;7475;53.558;9.970;2023-01-31T07:58:34;18.13;;;4.60;;
14766;SDS011;7475;53.558;9.970;2023-01-31T08:01:00;18.97;;;4.30;;
14766;SDS011;7475;53.558;9.970;2023-01-31T08:03:44;17.40;;;4.33;;
14766;SDS011;7475;53.558;9.970;2023-01-31T08:06:09;20.40;;;4.93;;
14766;SDS011;7475;53.558;9.970;2023-01-31T08:08:36;18.63;;;5.03;;
14766;SDS011;7475;53.558;9.970;2023-01-31T08:11:01;17.50;;;5.80;;
14766;SDS011;7475;53.558;9.970;2023-01-31T08:13:29;20.20;;;4.80;;
14766;SDS011;7475;53.558;9.970;2023-01-31T08:15:54;20.20;;;4.30;;
14766;SDS011;7475;53.558;9.970;2023-01-31T08:18:19;18.03;;;5.30;;
14766;SDS011;7475;53.558;9.970;2023-01-31T08:20:44;20.27;;;5.00;;
14766;SDS011;7475;53.558;9.970;2023-01-31T08:23:10;16.37;;;5.13;;
14766;SDS011;7475;53.558;9.970;2023-01-31T08:25:35;21.43;;;5.20;;
14766;SDS011;7475;53.558;9.970;2023-01-31T08:28:00;20.90;;;5.30;;
14766;SDS011;7475;53.558;9.970;2023-01-31T08:30:26;21.57;;;5.47;;
14766;SDS011;7475;53.558;9.970;2023-01-31T08:32:51;20.07;;;4.53;;
14766;SDS011;7475;53.558;9.970;2023-01-31T08:35:16;17.67;;;4.90;;
14766;SDS011;7475;53.558;9.970;2023-01-31T08:37:42;22.27;;;4.87;;
14766;SDS011;7475;53.558;9.970;2023-01-31T08:40:07;22.03;;;4.90;;
14766;SDS011;7475;53.558;9.970;2023-01-31T08:42:33;17.27;;;4.90;;
14766;SDS011;7475;53.558;9.970;2023-01-31T08:44:58;14.48;;;4.55;;
14766;SDS011;7475;53.558;9.970;2023-01-31T08:47:23;19.07;;;5.00;;
14766;SDS011;7475;53.558;9.970;2023-01-31T08:49:48;15.53;;;4.90;;
14766;SDS011;7475;53.558;9.970;2023-01-31T08:52:13;16.80;;;4.67;;
14766;SDS011;7475;53.558;9.970;2023-01-31T08:54:39;17.93;;;4.60;;
14766;SDS011;7475;53.558;9.970;2023-01-31T08:57:04;10.95;;;4.10;;
14766;SDS011;7475;53.558;9.970;2023-01-31T08:59:29;17.73;;;5.23;;
14766;SDS011;7475;53.558;9.970;2023-01-31T09:01:54;19.53;;;4.30;;
14766;SDS011;7475;53.558;9.970;2023-01-31T09:04:20;15.47;;;4.90;;
14766;SDS011;7475;53.558;9.970;2023-01-31T09:06:45;16.63;;;4.65;;
14766;SDS011;7475;53.558;9.970;2023-01-31T09:09:10;22.05;;;5.30;;
14766;SDS011;7475;53.558;9.970;2023-01-31T09:11:35;17.53;;;4.40;;
14766;SDS011;7475;53.558;9.970;2023-01-31T09:14:01;21.70;;;5.67;;
14766;SDS011;7475;53.558;9.970;2023-01-31T09:16:26;16.55;;;4.97;;
14766;SDS011;7475;53.558;9.970;2023-01-31T09:18:51;19.77;;;5.60;;
14766;SDS011;7475;53.558;9.970;2023-01-31T09:21:18;19.50;;;5.13;;
14766;SDS011;7475;53.558;9.970;2023-01-31T09:23:43;19.47;;;5.33;;
14766;SDS011;7475;53.558;9.970;2023-01-31T09:26:09;17.67;;;4.50;;
14766;SDS011;7475;53.558;9.970;2023-01-31T09:28:35;16.23;;;4.67;;
14766;SDS011;7475;53.558;9.970;2023-01-31T09:31:04;23.13;;;5.70;;
14766;SDS011;7475;53.558;9.970;2023-01-31T09:33:30;21.55;;;5.35;;
14766;SDS011;7475;53.558;9.970;2023-01-31T09:35:57;19.10;;;5.18;;
14766;SDS011;7475;53.558;9.970;2023-01-31T09:38:23;18.77;;;5.07;;
14766;SDS011;7475;53.558;9.970;2023-01-31T09:40:48;18.10;;;5.70;;
14766;SDS011;7475;53.558;9.970;2023-01-31T09:43:14;21.00;;;6.20;;
14766;SDS011;7475;53.558;9.970;2023-01-31T09:45:41;15.70;;;5.67;;
14766;SDS011;7475;53.558;9.970;2023-01-31T09:48:08;17.97;;;5.90;;
14766;SDS011;7475;53.558;9.970;2023-01-31T09:50:42;21.48;;;6.38;;
14766;SDS011;7475;53.558;9.970;2023-01-31T09:53:11;15.67;;;5.47;;
14766;SDS011;7475;53.558;9.970;2023-01-31T09:55:43;19.67;;;5.93;;
14766;SDS011;7475;53.558;9.970;2023-01-31T10:00:42;21.30;;;6.00;;
14766;SDS011;7475;53.558;9.970;2023-01-31T10:05:36;17.67;;;6.50;;
14766;SDS011;7475;53.558;9.970;2023-01-31T10:10:38;15.07;;;6.00;;
14766;SDS011;7475;53.558;9.970;2023-01-31T10:13:11;12.27;;;6.43;;
14766;SDS011;7475;53.558;9.970;2023-01-31T10:15:43;21.60;;;7.50;;
14766;SDS011;7475;53.558;9.970;2023-01-31T10:18:10;18.67;;;7.70;;
14766;SDS011;7475;53.558;9.970;2023-01-31T10:25:48;17.00;;;7.80;;
14766;SDS011;7475;53.558;9.970;2023-01-31T10:28:19;20.33;;;8.33;;
14766;SDS011;7475;53.558;9.970;2023-01-31T10:35:59;22.97;;;9.13;;
14766;SDS011;7475;53.558;9.970;2023-01-31T10:38:33;20.67;;;9.10;;
14766;SDS011;7475;53.558;9.970;2023-01-31T10:41:13;20.67;;;8.70;;
14766;SDS011;7475;53.558;9.970;2023-01-31T10:43:52;23.97;;;7.30;;
14766;SDS011;7475;53.558;9.970;2023-01-31T10:46:21;18.95;;;8.13;;
14766;SDS011;7475;53.558;9.970;2023-01-31T10:48:46;22.33;;;9.20;;
14766;SDS011;7475;53.558;9.970;2023-01-31T10:58:48;19.02;;;8.60;;
14766;SDS011;7475;53.558;9.970;2023-01-31T11:01:14;21.53;;;8.40;;
14766;SDS011;7475;53.558;9.970;2023-01-31T11:03:40;26.20;;;9.93;;
14766;SDS011;7475;53.558;9.970;2023-01-31T11:06:09;18.73;;;8.23;;
14766;SDS011;7475;53.558;9.970;2023-01-31T11:08:39;16.20;;;8.40;;
14766;SDS011;7475;53.558;9.970;2023-01-31T11:11:07;20.53;;;8.97;;
14766;SDS011;7475;53.558;9.970;2023-01-31T11:13:33;24.90;;;9.60;;
14766;SDS011;7475;53.558;9.970;2023-01-31T11:15:58;18.30;;;9.30;;
14766;SDS011;7475;53.558;9.970;2023-01-31T11:18:29;17.03;;;8.63;;
14766;SDS011;7475;53.558;9.970;2023-01-31T11:20:55;22.17;;;8.10;;
14766;SDS011;7475;53.558;9.970;2023-01-31T11:23:23;17.70;;;8.07;;
14766;SDS011;7475;53.558;9.970;2023-01-31T11:25:49;21.13;;;9.50;;
14766;SDS011;7475;53.558;9.970;2023-01-31T11:30:46;21.17;;;8.67;;
14766;SDS011;7475;53.558;9.970;2023-01-31T11:36:17;21.93;;;8.03;;
14766;SDS011;7475;53.558;9.970;2023-01-31T11:38:50;18.80;;;7.87;;
14766;SDS011;7475;53.558;9.970;2023-01-31T11:41:33;19.50;;;8.10;;
14766;SDS011;7475;53.558;9.970;2023-01-31T11:44:05;18.03;;;7.30;;
14766;SDS011;7475;53.558;9.970;2023-01-31T11:46:30;17.70;;;8.30;;
14766;SDS011;7475;53.558;9.970;2023-01-31T11:48:56;22.07;;;7.30;;
14766;SDS011;7475;53.558;9.970;2023-01-31T11:51:23;16.83;;;7.30;;
14766;SDS011;7475;53.558;9.970;2023-01-31T11:53:51;13.25;;;6.70;;
14766;SDS011;7475;53.558;9.970;2023-01-31T11:56:20;18.10;;;6.40;;
14766;SDS011;7475;53.558;9.970;2023-01-31T11:58:47;15.00;;;6.90;;
14766;SDS011;7475;53.558;9.970;2023-01-31T12:01:17;16.37;;;6.77;;
14766;SDS011;7475;53.558;9.970;2023-01-31T12:03:46;13.60;;;5.50;;
14766;SDS011;7475;53.558;9.970;2023-01-31T12:06:12;12.73;;;5.78;;
14766;SDS011;7475;53.558;9.970;2023-01-31T12:08:52;19.00;;;6.32;;
14766;SDS011;7475;53.558;9.970;2023-01-31T12:11:22;11.47;;;5.80;;
14766;SDS011;7475;53.558;9.970;2023-01-31T12:16:25;14.02;;;6.15;;
14766;SDS011;7475;53.558;9.970;2023-01-31T12:18:56;12.13;;;4.97;;
14766;SDS011;7475;53.558;9.970;2023-01-31T12:21:27;9.88;;;5.35;;
14766;SDS011;7475;53.558;9.970;2023-01-31T12:26:55;11.80;;;5.30;;
14766;SDS011;7475;53.558;9.970;2023-01-31T12:39:56;14.18;;;6.53;;
14766;SDS011;7475;53.558;9.970;2023-01-31T12:59:50;8.38;;;3.15;;
14766;SDS011;7475;53.558;9.970;2023-01-31T13:02:36;5.45;;;2.45;;
14766;SDS011;7475;53.558;9.970;2023-01-31T13:10:23;4.22;;;1.90;;
14766;SDS011;7475;53.558;9.970;2023-01-31T13:12:50;2.15;;;1.60;;
14766;SDS011;7475;53.558;9.970;2023-01-31T13:17:44;3.53;;;1.77;;
14766;SDS011;7475;53.558;9.970;2023-01-31T13:20:20;4.15;;;1.92;;
14766;SDS011;7475;53.558;9.970;2023-01-31T13:22:48;4.38;;;1.83;;
14766;SDS011;7475;53.558;9.970;2023-01-31T13:28:18;4.60;;;1.38;;
14766;SDS011;7475;53.558;9.970;2023-01-31T13:30:40;3.72;;;1.38;;
14766;SDS011;7475;53.558;9.970;2023-01-31T13:35:47;7.80;;;1.95;;
14766;SDS011;7475;53.558;9.970;2023-01-31T13:38:15;5.43;;;2.05;;
14766;SDS011;7475;53.558;9.970;2023-01-31T13:40:50;6.65;;;1.77;;
14766;SDS011;7475;53.558;9.970;2023-01-31T13:43:16;8.43;;;2.10;;
14766;SDS011;7475;53.558;9.970;2023-01-31T13:45:43;10.00;;;2.42;;
14766;SDS011;7475;53.558;9.970;2023-01-31T13:48:28;10.00;;;3.13;;
14766;SDS011;7475;53.558;9.970;2023-01-31T13:53:32;8.05;;;2.72;;
14766;SDS011;7475;53.558;9.970;2023-01-31T13:55:59;11.77;;;2.30;;
14766;SDS011;7475;53.558;9.970;2023-01-31T13:58:31;8.45;;;2.20;;
14766;SDS011;7475;53.558;9.970;2023-01-31T14:03:23;9.30;;;2.80;;
14766;SDS011;7475;53.558;9.970;2023-01-31T14:05:51;8.25;;;2.78;;
14766;SDS011;7475;53.558;9.970;2023-01-31T14:10:50;8.10;;;2.60;;
14766;SDS011;7475;53.558;9.970;2023-01-31T14:13:22;9.10;;;2.90;;
14766;SDS011;7475;53.558;9.970;2023-01-31T14:15:50;10.93;;;2.40;;
14766;SDS011;7475;53.558;9.970;2023-01-31T14:18:37;10.32;;;3.20;;
14766;SDS011;7475;53.558;9.970;2023-01-31T14:24:04;9.55;;;2.60;;
14766;SDS011;7475;53.558;9.970;2023-01-31T14:26:34;8.68;;;3.08;;
14766;SDS011;7475;53.558;9.970;2023-01-31T14:29:14;10.27;;;3.10;;
14766;SDS011;7475;53.558;9.970;2023-01-31T14:31:41;13.00;;;5.32;;
14766;SDS011;7475;53.558;9.970;2023-01-31T14:34:17;8.35;;;2.80;;
14766;SDS011;7475;53.558;9.970;2023-01-31T14:37:00;11.48;;;2.95;;
14766;SDS011;7475;53.558;9.970;2023-01-31T14:55:04;10.43;;;3.10;;
14766;SDS011;7475;53.558;9.970;2023-01-31T14:57:33;13.45;;;3.08;;
14766;SDS011;7475;53.558;9.970;2023-01-31T15:00:49;12.15;;;3.25;;
14766;SDS011;7475;53.558;9.970;2023-01-31T15:03:06;15.90;;;3.33;;
14766;SDS011;7475;53.558;9.970;2023-01-31T15:08:03;16.58;;;3.75;;
14766;SDS011;7475;53.558;9.970;2023-01-31T15:15:56;16.70;;;4.18;;
14766;SDS011;7475;53.558;9.970;2023-01-31T15:18:22;23.17;;;4.35;;
14766;SDS011;7475;53.558;9.970;2023-01-31T15:20:51;21.10;;;5.03;;
14766;SDS011;7475;53.558;9.970;2023-01-31T15:23:20;18.13;;;4.32;;
14766;SDS011;7475;53.558;9.970;2023-01-31T15:25:46;25.17;;;5.70;;
14766;SDS011;7475;53.558;9.970;2023-01-31T15:28:15;23.50;;;5.38;;
14766;SDS011;7475;53.558;9.970;2023-01-31T15:30:41;25.73;;;5.82;;
14766;SDS011;7475;53.558;9.970;2023-01-31T15:33:20;16.25;;;3.67;;
14766;SDS011;7475;53.558;9.970;2023-01-31T15:35:52;25.13;;;4.15;;
14766;SDS011;7475;53.558;9.970;2023-01-31T15:38:23;25.73;;;3.90;;
14766;SDS011;7475;53.558;9.970;2023-01-31T15:41:09;20.00;;;4.35;;
14766;SDS011;7475;53.558;9.970;2023-01-31T15:43:39;32.90;;;4.53;;
14766;SDS011;7475;53.558;9.970;2023-01-31T15:46:19;24.25;;;4.72;;
14766;SDS011;7475;53.558;9.970;2023-01-31T15:48:48;21.35;;;4.45;;
14766;SDS011;7475;53.558;9.970;2023-01-31T15:51:14;26.77;;;4.72;;
14766;SDS011;7475;53.558;9.970;2023-01-31T15:53:39;30.45;;;4.75;;
14766;SDS011;7475;53.558;9.970;2023-01-31T15:56:05;25.92;;;4.38;;
14766;SDS011;7475;53.558;9.970;2023-01-31T15:58:31;25.58;;;4.50;;
14766;SDS011;7475;53.558;9.970;2023-01-31T16:00:58;21.90;;;3.75;;
14766;SDS011;7475;53.558;9.970;2023-01-31T16:03:25;25.52;;;4.15;;
14766;SDS011;7475;53.558;9.970;2023-01-31T16:05:51;24.83;;;4.63;;
14766;SDS011;7475;53.558;9.970;2023-01-31T16:08:35;18.25;;;3.90;;
14766;SDS011;7475;53.558;9.970;2023-01-31T16:11:02;18.50;;;3.63;;
14766;SDS011;7475;53.558;9.970;2023-01-31T16:13:32;24.63;;;5.05;;
14766;SDS011;7475;53.558;9.970;2023-01-31T16:15:59;27.95;;;7.43;;
14766;SDS011;7475;53.558;9.970;2023-01-31T16:18:24;17.58;;;2.15;;
14766;SDS011;7475;53.558;9.970;2023-01-31T16:20:50;8.65;;;1.98;;
14766;SDS011;7475;53.558;9.970;2023-01-31T16:25:55;8.68;;;1.90;;
14766;SDS011;7475;53.558;9.970;2023-01-31T16:28:22;10.63;;;1.92;;
14766;SDS011;7475;53.558;9.970;2023-01-31T16:30:48;10.80;;;1.70;;
14766;SDS011;7475;53.558;9.970;2023-01-31T16:33:22;11.88;;;4.22;;
14766;SDS011;7475;53.558;9.970;2023-01-31T16:38:50;10.43;;;2.22;;
14766;SDS011;7475;53.558;9.970;2023-01-31T16:41:20;8.10;;;2.33;;
14766;SDS011;7475;53.558;9.970;2023-01-31T16:43:59;16.27;;;5.77;;
14766;SDS011;7475;53.558;9.970;2023-01-31T16:46:35;17.33;;;4.60;;
14766;SDS011;7475;53.558;9.970;2023-01-31T16:49:02;11.00;;;2.20;;
14766;SDS011;7475;53.558;9.970;2023-01-31T16:54:26;14.70;;;2.70;;
14766;SDS011;7475;53.558;9.970;2023-01-31T16:56:44;19.00;;;4.50;;
14766;SDS011;7475;53.558;9.970;2023-01-31T16:59:52;25.83;;;6.70;;
14766;SDS011;7475;53.558;9.970;2023-01-31T17:04:32;24.50;;;6.40;;
14766;SDS011;7475;53.558;9.970;2023-01-31T17:07:02;20.90;;;3.97;;
14766;SDS011;7475;53.558;9.970;2023-01-31T17:09:28;19.67;;;3.83;;
14766;SDS011;7475;53.558;9.970;2023-01-31T17:11:54;23.20;;;4.33;;
14766;SDS011;7475;53.558;9.970;2023-01-31T17:14:19;19.13;;;3.50;;
14766;SDS011;7475;53.558;9.970;2023-01-31T17:16:44;23.97;;;3.60;;
14766;SDS011;7475;53.558;9.970;2023-01-31T17:19:11;25.90;;;4.13;;
14766;SDS011;7475;53.558;9.970;2023-01-31T17:21:38;21.93;;;4.20;;
14766;SDS011;7475;53.558;9.970;2023-01-31T17:24:04;20.77;;;4.33;;
14766;SDS011;7475;53.558;9.970;2023-01-31T17:26:29;28.33;;;4.97;;
14766;SDS011;7475;53.558;9.970;2023-01-31T17:28:55;28.73;;;6.80;;
14766;SDS011;7475;53.558;9.970;2023-01-31T17:31:21;33.23;;;5.93;;
14766;SDS011;7475;53.558;9.970;2023-01-31T17:33:47;33.60;;;6.30;;
14766;SDS011;7475;53.558;9.970;2023-01-31T17:36:13;22.03;;;4.37;;